Sanpo Maru No.5 — JL6343 — position and weather

sailwx.info

Track history (hours):
 
Tides and Currents Weather Stations Pressure Air Temp Water Temp Dewpoint Dewpoint Depression Visibility Wind Speed Wind Dir Waves Ship Positions

Sanpo Maru No.5

Last reported at 2016-May-01 06:33 UTC. Time now 2016-May-06 07:22 UTC.
Position N 35°05' E 139°33'.

Length 71 m; draft 3.5 m.

Type: Ship. MMSI: 431500283.

Date/timePositionNaut miles runAvg speedWind from/ knotsBaromVisibWave heightAir tempDewpointWater temp
2016-May-01 06:33N 35°05' E 139°33'9 9.0
2016-May-01 05:33N 35°08' E 139°43'10 9.7
2016-May-01 04:33N 35°18' E 139°44'10 9.5
2016-May-01 03:33N 35°27' E 139°47'1212.1
2016-May-01 02:33N 35°33' E 140°00'5 5.0
2016-May-01 01:33N 35°36' E 140°05'0 0.0
2016-May-01 00:33N 35°36' E 140°05'0 0.0
2016-Apr-30 23:33N 35°36' E 140°05'0 0.4
2016-Apr-30 22:33N 35°36' E 140°05'7 6.5
2016-Apr-30 21:32N 35°30' E 139°60'0 0.0
2016-Apr-30 20:32N 35°30' E 139°60'0 0.0
2016-Apr-30 19:32N 35°30' E 140°00'0 0.0
2016-Apr-30 18:20N 35°30' E 140°00'0 0.0
2016-Apr-30 17:33N 35°30' E 140°00'0 0.0
2016-Apr-30 16:30N 35°30' E 140°00'0 0.0
2016-Apr-30 15:29N 35°30' E 140°00'0 0.0
2016-Apr-30 14:33N 35°30' E 140°00'0 0.0
2016-Apr-30 13:32N 35°30' E 139°60'0 0.0
2016-Apr-30 12:32N 35°30' E 139°60'0 0.0
2016-Apr-30 11:33N 35°30' E 139°60'0 0.0
2016-Apr-30 10:31N 35°30' E 140°00'0 0.0
2016-Apr-30 09:33N 35°30' E 140°00'0 0.0
2016-Apr-30 08:33N 35°30' E 140°00'0 0.0
2016-Apr-30 07:28N 35°30' E 140°00'0 0.0
2016-Apr-30 06:33N 35°30' E 140°00'0 0.0
2016-Apr-30 05:31N 35°30' E 140°00'0 0.0
2016-Apr-30 04:31N 35°30' E 140°00'2 1.8
2016-Apr-30 03:33N 35°30' E 140°02'0 0.0
2016-Apr-30 02:33N 35°30' E 140°02'0 0.0
2016-Apr-30 01:34N 35°30' E 140°02'0 0.0
2016-Apr-30 00:34N 35°30' E 140°02'0 0.0
2016-Apr-29 23:33N 35°30' E 140°02'2 2.3
2016-Apr-29 22:33N 35°31' E 139°60'5 4.8
2016-Apr-29 21:32N 35°35' E 139°56'0 0.0
2016-Apr-29 20:32N 35°35' E 139°56'0 0.0
2016-Apr-29 19:32N 35°35' E 139°56'0 0.0
2016-Apr-29 18:29N 35°35' E 139°56'0 0.0
2016-Apr-29 17:32N 35°35' E 139°56'0 0.0
2016-Apr-29 16:29N 35°35' E 139°56'0 0.0
2016-Apr-29 15:32N 35°35' E 139°56'0 0.0
2016-Apr-29 14:32N 35°35' E 139°56'0 0.0
2016-Apr-29 13:33N 35°35' E 139°56'0 0.0
2016-Apr-29 12:33N 35°35' E 139°56'0 0.0
2016-Apr-29 11:33N 35°35' E 139°56'0 0.0
2016-Apr-29 10:32N 35°35' E 139°56'0 0.0
2016-Apr-29 09:31N 35°35' E 139°56'0 0.0
2016-Apr-29 08:31N 35°35' E 139°56'0 0.0
2016-Apr-29 07:26N 35°35' E 139°56'0 0.0
2016-Apr-29 06:32N 35°35' E 139°56'0 0.0
2016-Apr-29 05:32N 35°35' E 139°56'0 0.0
2016-Apr-29 04:32N 35°35' E 139°56'0 0.0
2016-Apr-29 03:32N 35°35' E 139°56'0 0.0
2016-Apr-29 02:33N 35°35' E 139°56'7 7.1
2016-Apr-29 01:33N 35°36' E 140°05'0 0.4
2016-Apr-29 00:32N 35°36' E 140°05'0 0.0
2016-Apr-28 23:33N 35°36' E 140°05'0 0.0
2016-Apr-28 22:33N 35°36' E 140°05'7 7.0
2016-Apr-28 21:33N 35°30' E 140°00'0 0.1
2016-Apr-28 20:33N 35°30' E 139°60'0 0.0
2016-Apr-28 19:33N 35°30' E 139°60'0 0.0
2016-Apr-28 18:33N 35°30' E 139°60'0 0.0
2016-Apr-28 17:33N 35°30' E 139°60'0 0.1
2016-Apr-28 16:33N 35°30' E 139°60'0 0.0
2016-Apr-28 15:33N 35°30' E 139°60'0 0.0
2016-Apr-28 14:33N 35°30' E 139°60'0 0.0
2016-Apr-28 13:33N 35°30' E 139°60'0 0.0
2016-Apr-28 12:33N 35°30' E 139°60'0 0.0
2016-Apr-28 11:33N 35°30' E 139°60'0 0.0
2016-Apr-28 10:33N 35°30' E 139°60'0 0.0
2016-Apr-28 09:33N 35°30' E 139°60'0 0.0
2016-Apr-28 08:33N 35°30' E 139°60'0 0.0
2016-Apr-28 07:33N 35°30' E 139°60'0 0.0
2016-Apr-28 06:33N 35°30' E 139°60'2 1.7
2016-Apr-28 05:33N 35°30' E 140°02'0 0.0
2016-Apr-28 04:33N 35°30' E 140°02'0 0.0
2016-Apr-28 03:33N 35°30' E 140°02'0 0.0
2016-Apr-28 02:33N 35°30' E 140°02'0 0.0
2016-Apr-28 01:33N 35°30' E 140°02'1 1.0
2016-Apr-28 00:33N 35°30' E 140°01'1 1.3
2016-Apr-27 23:33N 35°31' E 139°60'0 0.0
2016-Apr-27 22:33N 35°31' E 139°60'0 0.0
2016-Apr-27 21:21N 35°31' E 139°60'0 0.0
2016-Apr-27 20:33N 35°31' E 139°60'0 0.0
2016-Apr-27 18:33N 35°31' E 139°60'0 0.0
2016-Apr-27 17:33N 35°31' E 139°60'0 0.0
2016-Apr-27 16:33N 35°31' E 139°60'0 0.0
2016-Apr-27 15:33N 35°31' E 139°60'0 0.0
2016-Apr-27 14:33N 35°31' E 139°60'0 0.0
2016-Apr-27 13:15N 35°31' E 139°60'0 0.0
2016-Apr-27 12:27N 35°31' E 139°60'0 0.0
2016-Apr-27 11:33N 35°31' E 139°60'0 0.0
2016-Apr-27 10:33N 35°31' E 139°60'0 0.0
2016-Apr-27 09:33N 35°31' E 139°60'0 0.0
2016-Apr-27 08:27N 35°31' E 139°60'7 7.6
2016-Apr-27 07:34N 35°36' E 140°05'0 0.1
2016-Apr-27 06:33N 35°36' E 140°05'7 2.2
2016-Apr-27 03:33N 35°31' E 140°00'1 0.7
2016-Apr-27 02:28N 35°30' E 139°60'0 0.0
2016-Apr-27 01:28N 35°30' E 139°60'0 0.0
2016-Apr-27 00:16N 35°30' E 139°60'0 0.0
2016-Apr-26 23:16N 35°30' E 139°60'0 0.0
2016-Apr-26 22:28N 35°30' E 139°60'0 0.0
2016-Apr-26 21:28N 35°30' E 139°60'0 0.0
2016-Apr-26 20:28N 35°30' E 139°60'0 0.0
2016-Apr-26 19:28N 35°30' E 139°60'0 0.0
2016-Apr-26 18:28N 35°30' E 139°60'0 0.0
2016-Apr-26 17:22N 35°30' E 139°60'0 0.1
2016-Apr-26 16:28N 35°30' E 139°60'0 0.0
2016-Apr-26 15:28N 35°30' E 139°60'0 0.0
2016-Apr-26 14:28N 35°30' E 139°60'0 0.0
2016-Apr-26 13:28N 35°30' E 139°60'0 0.0
2016-Apr-26 12:22N 35°30' E 139°60'0 0.0
2016-Apr-26 11:28N 35°30' E 139°60'0 0.0
2016-Apr-26 10:28N 35°30' E 139°60'0 0.0
2016-Apr-26 09:28N 35°30' E 139°60'0 0.1
2016-Apr-26 08:28N 35°30' E 139°60'0 0.0
2016-Apr-26 07:28N 35°30' E 139°60'0 0.5
2016-Apr-26 06:33N 35°30' E 140°00'1 1.4
2016-Apr-26 05:33N 35°30' E 140°02'0 0.0
2016-Apr-26 04:33N 35°30' E 140°02'0 0.0
2016-Apr-26 03:33N 35°30' E 140°02'0 0.0
2016-Apr-26 02:33N 35°30' E 140°02'0 0.0
2016-Apr-26 01:33N 35°30' E 140°02'1 1.4
2016-Apr-26 00:33N 35°31' E 140°01'7 6.7
2016-Apr-25 23:33N 35°36' E 140°06'0 0.3
2016-Apr-25 22:33N 35°36' E 140°06'0 0.0
2016-Apr-25 21:33N 35°36' E 140°06'0 0.0
2016-Apr-25 20:33N 35°36' E 140°06'0 0.0
2016-Apr-25 19:33N 35°36' E 140°06'0 0.0
2016-Apr-25 18:33N 35°36' E 140°06'0 0.0
2016-Apr-25 17:33N 35°36' E 140°06'0 0.0
2016-Apr-25 16:33N 35°36' E 140°06'0 0.0
2016-Apr-25 15:33N 35°36' E 140°06'0 0.0
2016-Apr-25 14:33N 35°36' E 140°06'0 0.0
2016-Apr-25 13:33N 35°36' E 140°06'0 0.0
2016-Apr-25 12:33N 35°36' E 140°06'0 0.0
2016-Apr-25 11:33N 35°36' E 140°06'0 0.0
2016-Apr-25 10:33N 35°36' E 140°06'0 0.0
2016-Apr-25 09:33N 35°36' E 140°06'0 0.0
2016-Apr-25 08:33N 35°36' E 140°06'0 0.0
2016-Apr-25 07:33N 35°36' E 140°06'0 0.0
2016-Apr-25 06:33N 35°36' E 140°06'0 0.0
2016-Apr-25 05:33N 35°36' E 140°06'0 0.0
2016-Apr-25 04:33N 35°36' E 140°06'3 3.0
2016-Apr-25 03:33N 35°34' E 140°03'2 2.3
2016-Apr-25 02:33N 35°36' E 140°05'0 0.0
2016-Apr-25 01:33N 35°36' E 140°05'0 0.0
2016-Apr-25 00:33N 35°36' E 140°05'2 2.4
2016-Apr-24 23:33N 35°34' E 140°03'5 4.7
2016-Apr-24 22:28N 35°30' E 140°00'0 0.0
2016-Apr-24 21:28N 35°30' E 140°00'0 0.0
2016-Apr-24 20:28N 35°30' E 140°00'0 0.0
2016-Apr-24 19:28N 35°30' E 140°00'0 0.0
2016-Apr-24 18:28N 35°30' E 140°00'0 0.0
2016-Apr-24 17:28N 35°30' E 140°00'0 0.0
2016-Apr-24 16:28N 35°30' E 140°00'0 0.0
2016-Apr-24 15:28N 35°30' E 140°00'0 0.0
2016-Apr-24 14:28N 35°30' E 140°00'0 0.0
2016-Apr-24 13:28N 35°30' E 140°00'0 0.0
2016-Apr-24 12:28N 35°30' E 140°00'0 0.0
2016-Apr-24 11:16N 35°30' E 140°00'0 0.0
2016-Apr-24 10:22N 35°30' E 140°00'2 1.9
2016-Apr-24 09:33N 35°30' E 140°02'0 0.2
2016-Apr-24 08:33N 35°30' E 140°02'0 0.0
2016-Apr-24 07:33N 35°30' E 140°02'0 0.0
2016-Apr-24 06:33N 35°30' E 140°02'0 0.0
2016-Apr-24 05:33N 35°30' E 140°02'1 1.0
2016-Apr-24 04:33N 35°30' E 140°01'5 4.5
2016-Apr-24 03:33N 35°34' E 140°03'2 2.2
2016-Apr-24 02:33N 35°36' E 140°05'0 0.0
2016-Apr-24 01:33N 35°36' E 140°05'0 0.0
2016-Apr-24 00:33N 35°36' E 140°05'1 0.6
2016-Apr-23 23:33N 35°36' E 140°05'7 6.9
2016-Apr-23 22:33N 35°30' E 140°00'0 0.0
2016-Apr-23 21:33N 35°30' E 140°00'0 0.1
2016-Apr-23 20:33N 35°30' E 140°00'0 0.0
2016-Apr-23 19:33N 35°30' E 140°00'0 0.0
2016-Apr-23 18:33N 35°30' E 140°00'0 0.0
2016-Apr-23 17:33N 35°30' E 140°00'0 0.0
2016-Apr-23 16:33N 35°30' E 140°00'0 0.0
2016-Apr-23 15:33N 35°30' E 140°00'0 0.0
2016-Apr-23 14:33N 35°30' E 140°00'0 0.1
2016-Apr-23 13:33N 35°30' E 140°00'0 0.0
2016-Apr-23 12:33N 35°30' E 140°00'0 0.0
2016-Apr-23 11:33N 35°30' E 140°00'0 0.0
2016-Apr-23 10:33N 35°30' E 140°00'0 0.0
2016-Apr-23 09:27N 35°30' E 140°00'0 0.0
2016-Apr-23 08:27N 35°30' E 140°00'0 0.0
2016-Apr-23 07:15N 35°30' E 140°00'0 0.1
2016-Apr-23 06:33N 35°30' E 140°00'0 0.0
2016-Apr-23 05:33N 35°30' E 140°00'0 0.0
2016-Apr-23 04:33N 35°30' E 140°00'1 1.5
2016-Apr-23 03:34N 35°30' E 140°02'0 0.0
2016-Apr-23 02:33N 35°30' E 140°02'0 0.0
2016-Apr-23 01:33N 35°30' E 140°02'0 0.0
2016-Apr-23 00:33N 35°30' E 140°02'0 0.0
2016-Apr-22 23:33N 35°30' E 140°02'2 2.3
2016-Apr-22 22:32N 35°31' E 139°59'0 0.0
2016-Apr-22 21:33N 35°31' E 139°59'0 0.0
2016-Apr-22 20:33N 35°31' E 139°59'0 0.0
2016-Apr-22 19:33N 35°31' E 139°59'0 0.0
2016-Apr-22 18:33N 35°31' E 139°60'0 0.0
2016-Apr-22 17:33N 35°31' E 139°60'0 0.0
2016-Apr-22 16:33N 35°31' E 139°59'0 0.0
2016-Apr-22 15:33N 35°31' E 139°59'0 0.0
2016-Apr-22 14:33N 35°31' E 139°59'0 0.0
2016-Apr-22 13:32N 35°31' E 139°59'0 0.0
2016-Apr-22 12:33N 35°31' E 139°59'0 0.0
2016-Apr-22 11:33N 35°31' E 139°59'0 0.0
2016-Apr-22 10:33N 35°31' E 139°59'0 0.0
2016-Apr-22 09:33N 35°31' E 139°59'0 0.0
2016-Apr-22 08:33N 35°31' E 139°59'0 0.0
2016-Apr-22 07:33N 35°31' E 139°59'0 0.0
2016-Apr-22 06:34N 35°31' E 139°59'0 0.0
2016-Apr-22 05:33N 35°31' E 139°59'0 0.0
2016-Apr-22 04:33N 35°31' E 139°59'0 0.2
2016-Apr-22 03:33N 35°31' E 139°60'7 6.7
2016-Apr-22 02:33N 35°36' E 140°05'0 0.0
2016-Apr-22 01:33N 35°36' E 140°05'0 0.0
2016-Apr-22 00:33N 35°36' E 140°05'0 0.4
2016-Apr-21 23:33N 35°36' E 140°05'7 7.0
2016-Apr-21 22:33N 35°30' E 140°00'0 0.0
2016-Apr-21 21:33N 35°30' E 140°00'0 0.1
2016-Apr-21 20:33N 35°30' E 140°00'0 0.0
2016-Apr-21 19:33N 35°30' E 140°00'0 0.0
2016-Apr-21 18:33N 35°30' E 140°00'0 0.0
2016-Apr-21 17:33N 35°30' E 140°00'0 0.0
2016-Apr-21 16:32N 35°30' E 140°00'0 0.0
2016-Apr-21 15:21N 35°30' E 140°00'0 0.0
2016-Apr-21 14:33N 35°30' E 140°00'0 0.1
2016-Apr-21 13:33N 35°30' E 140°00'0 0.1
2016-Apr-21 12:32N 35°30' E 140°00'0 0.0
2016-Apr-21 11:33N 35°30' E 140°00'0 0.0
2016-Apr-21 10:33N 35°30' E 140°00'0 0.0
2016-Apr-21 09:25N 35°30' E 140°00'0 0.0
2016-Apr-21 08:32N 35°30' E 140°00'1 1.5
2016-Apr-21 07:33N 35°30' E 140°02'0 0.0
2016-Apr-21 06:33N 35°30' E 140°02'  
Track history (hours):
 
Tides and Currents Weather Stations Pressure Air Temp Water Temp Dewpoint Dewpoint Depression Visibility Wind Speed Wind Dir Waves Ship Positions

Sanpo Maru No.5

Last reported at 2016-May-01 06:33 UTC. Time now 2016-May-06 07:22 UTC.
Position N 35°05' E 139°33'.

Length 71 m; draft 3.5 m.

Type: Ship. MMSI: 431500283.

Date/timePositionNaut miles runAvg speedWind from/ knotsBaromVisibWave heightAir tempDewpointWater temp
2016-May-01 06:33N 35°05' E 139°33'9 9.0
2016-May-01 05:33N 35°08' E 139°43'10 9.7
2016-May-01 04:33N 35°18' E 139°44'10 9.5
2016-May-01 03:33N 35°27' E 139°47'1212.1
2016-May-01 02:33N 35°33' E 140°00'5 5.0
2016-May-01 01:33N 35°36' E 140°05'0 0.0
2016-May-01 00:33N 35°36' E 140°05'0 0.0
2016-Apr-30 23:33N 35°36' E 140°05'0 0.4
2016-Apr-30 22:33N 35°36' E 140°05'7 6.5
2016-Apr-30 21:32N 35°30' E 139°60'0 0.0
2016-Apr-30 20:32N 35°30' E 139°60'0 0.0
2016-Apr-30 19:32N 35°30' E 140°00'0 0.0
2016-Apr-30 18:20N 35°30' E 140°00'0 0.0
2016-Apr-30 17:33N 35°30' E 140°00'0 0.0
2016-Apr-30 16:30N 35°30' E 140°00'0 0.0
2016-Apr-30 15:29N 35°30' E 140°00'0 0.0
2016-Apr-30 14:33N 35°30' E 140°00'0 0.0
2016-Apr-30 13:32N 35°30' E 139°60'0 0.0
2016-Apr-30 12:32N 35°30' E 139°60'0 0.0
2016-Apr-30 11:33N 35°30' E 139°60'0 0.0
2016-Apr-30 10:31N 35°30' E 140°00'0 0.0
2016-Apr-30 09:33N 35°30' E 140°00'0 0.0
2016-Apr-30 08:33N 35°30' E 140°00'0 0.0
2016-Apr-30 07:28N 35°30' E 140°00'0 0.0
2016-Apr-30 06:33N 35°30' E 140°00'0 0.0
2016-Apr-30 05:31N 35°30' E 140°00'0 0.0
2016-Apr-30 04:31N 35°30' E 140°00'2 1.8
2016-Apr-30 03:33N 35°30' E 140°02'0 0.0
2016-Apr-30 02:33N 35°30' E 140°02'0 0.0
2016-Apr-30 01:34N 35°30' E 140°02'0 0.0
2016-Apr-30 00:34N 35°30' E 140°02'0 0.0
2016-Apr-29 23:33N 35°30' E 140°02'2 2.3
2016-Apr-29 22:33N 35°31' E 139°60'5 4.8
2016-Apr-29 21:32N 35°35' E 139°56'0 0.0
2016-Apr-29 20:32N 35°35' E 139°56'0 0.0
2016-Apr-29 19:32N 35°35' E 139°56'0 0.0
2016-Apr-29 18:29N 35°35' E 139°56'0 0.0
2016-Apr-29 17:32N 35°35' E 139°56'0 0.0
2016-Apr-29 16:29N 35°35' E 139°56'0 0.0
2016-Apr-29 15:32N 35°35' E 139°56'0 0.0
2016-Apr-29 14:32N 35°35' E 139°56'0 0.0
2016-Apr-29 13:33N 35°35' E 139°56'0 0.0
2016-Apr-29 12:33N 35°35' E 139°56'0 0.0
2016-Apr-29 11:33N 35°35' E 139°56'0 0.0
2016-Apr-29 10:32N 35°35' E 139°56'0 0.0
2016-Apr-29 09:31N 35°35' E 139°56'0 0.0
2016-Apr-29 08:31N 35°35' E 139°56'0 0.0
2016-Apr-29 07:26N 35°35' E 139°56'0 0.0
2016-Apr-29 06:32N 35°35' E 139°56'0 0.0
2016-Apr-29 05:32N 35°35' E 139°56'0 0.0
2016-Apr-29 04:32N 35°35' E 139°56'0 0.0
2016-Apr-29 03:32N 35°35' E 139°56'0 0.0
2016-Apr-29 02:33N 35°35' E 139°56'7 7.1
2016-Apr-29 01:33N 35°36' E 140°05'0 0.4
2016-Apr-29 00:32N 35°36' E 140°05'0 0.0
2016-Apr-28 23:33N 35°36' E 140°05'0 0.0
2016-Apr-28 22:33N 35°36' E 140°05'7 7.0
2016-Apr-28 21:33N 35°30' E 140°00'0 0.1
2016-Apr-28 20:33N 35°30' E 139°60'0 0.0
2016-Apr-28 19:33N 35°30' E 139°60'0 0.0
2016-Apr-28 18:33N 35°30' E 139°60'0 0.0
2016-Apr-28 17:33N 35°30' E 139°60'0 0.1
2016-Apr-28 16:33N 35°30' E 139°60'0 0.0
2016-Apr-28 15:33N 35°30' E 139°60'0 0.0
2016-Apr-28 14:33N 35°30' E 139°60'0 0.0
2016-Apr-28 13:33N 35°30' E 139°60'0 0.0
2016-Apr-28 12:33N 35°30' E 139°60'0 0.0
2016-Apr-28 11:33N 35°30' E 139°60'0 0.0
2016-Apr-28 10:33N 35°30' E 139°60'0 0.0
2016-Apr-28 09:33N 35°30' E 139°60'0 0.0
2016-Apr-28 08:33N 35°30' E 139°60'0 0.0
2016-Apr-28 07:33N 35°30' E 139°60'0 0.0
2016-Apr-28 06:33N 35°30' E 139°60'2 1.7
2016-Apr-28 05:33N 35°30' E 140°02'0 0.0
2016-Apr-28 04:33N 35°30' E 140°02'0 0.0
2016-Apr-28 03:33N 35°30' E 140°02'0 0.0
2016-Apr-28 02:33N 35°30' E 140°02'0 0.0
2016-Apr-28 01:33N 35°30' E 140°02'1 1.0
2016-Apr-28 00:33N 35°30' E 140°01'1 1.3
2016-Apr-27 23:33N 35°31' E 139°60'0 0.0
2016-Apr-27 22:33N 35°31' E 139°60'0 0.0
2016-Apr-27 21:21N 35°31' E 139°60'0 0.0
2016-Apr-27 20:33N 35°31' E 139°60'0 0.0
2016-Apr-27 18:33N 35°31' E 139°60'0 0.0
2016-Apr-27 17:33N 35°31' E 139°60'0 0.0
2016-Apr-27 16:33N 35°31' E 139°60'0 0.0
2016-Apr-27 15:33N 35°31' E 139°60'0 0.0
2016-Apr-27 14:33N 35°31' E 139°60'0 0.0
2016-Apr-27 13:15N 35°31' E 139°60'0 0.0
2016-Apr-27 12:27N 35°31' E 139°60'0 0.0
2016-Apr-27 11:33N 35°31' E 139°60'0 0.0
2016-Apr-27 10:33N 35°31' E 139°60'0 0.0
2016-Apr-27 09:33N 35°31' E 139°60'0 0.0
2016-Apr-27 08:27N 35°31' E 139°60'7 7.6
2016-Apr-27 07:34N 35°36' E 140°05'0 0.1
2016-Apr-27 06:33N 35°36' E 140°05'7 2.2
2016-Apr-27 03:33N 35°31' E 140°00'1 0.7
2016-Apr-27 02:28N 35°30' E 139°60'0 0.0
2016-Apr-27 01:28N 35°30' E 139°60'0 0.0
2016-Apr-27 00:16N 35°30' E 139°60'0 0.0
2016-Apr-26 23:16N 35°30' E 139°60'0 0.0
2016-Apr-26 22:28N 35°30' E 139°60'0 0.0
2016-Apr-26 21:28N 35°30' E 139°60'0 0.0
2016-Apr-26 20:28N 35°30' E 139°60'0 0.0
2016-Apr-26 19:28N 35°30' E 139°60'0 0.0
2016-Apr-26 18:28N 35°30' E 139°60'0 0.0
2016-Apr-26 17:22N 35°30' E 139°60'0 0.1
2016-Apr-26 16:28N 35°30' E 139°60'0 0.0
2016-Apr-26 15:28N 35°30' E 139°60'0 0.0
2016-Apr-26 14:28N 35°30' E 139°60'0 0.0
2016-Apr-26 13:28N 35°30' E 139°60'0 0.0
2016-Apr-26 12:22N 35°30' E 139°60'0 0.0
2016-Apr-26 11:28N 35°30' E 139°60'0 0.0
2016-Apr-26 10:28N 35°30' E 139°60'0 0.0
2016-Apr-26 09:28N 35°30' E 139°60'0 0.1
2016-Apr-26 08:28N 35°30' E 139°60'0 0.0
2016-Apr-26 07:28N 35°30' E 139°60'0 0.5
2016-Apr-26 06:33N 35°30' E 140°00'1 1.4
2016-Apr-26 05:33N 35°30' E 140°02'0 0.0
2016-Apr-26 04:33N 35°30' E 140°02'0 0.0
2016-Apr-26 03:33N 35°30' E 140°02'0 0.0
2016-Apr-26 02:33N 35°30' E 140°02'0 0.0
2016-Apr-26 01:33N 35°30' E 140°02'1 1.4
2016-Apr-26 00:33N 35°31' E 140°01'7 6.7
2016-Apr-25 23:33N 35°36' E 140°06'0 0.3
2016-Apr-25 22:33N 35°36' E 140°06'0 0.0
2016-Apr-25 21:33N 35°36' E 140°06'0 0.0
2016-Apr-25 20:33N 35°36' E 140°06'0 0.0
2016-Apr-25 19:33N 35°36' E 140°06'0 0.0
2016-Apr-25 18:33N 35°36' E 140°06'0 0.0
2016-Apr-25 17:33N 35°36' E 140°06'0 0.0
2016-Apr-25 16:33N 35°36' E 140°06'0 0.0
2016-Apr-25 15:33N 35°36' E 140°06'0 0.0
2016-Apr-25 14:33N 35°36' E 140°06'0 0.0
2016-Apr-25 13:33N 35°36' E 140°06'0 0.0
2016-Apr-25 12:33N 35°36' E 140°06'0 0.0
2016-Apr-25 11:33N 35°36' E 140°06'0 0.0
2016-Apr-25 10:33N 35°36' E 140°06'0 0.0
2016-Apr-25 09:33N 35°36' E 140°06'0 0.0
2016-Apr-25 08:33N 35°36' E 140°06'0 0.0
2016-Apr-25 07:33N 35°36' E 140°06'0 0.0
2016-Apr-25 06:33N 35°36' E 140°06'0 0.0
2016-Apr-25 05:33N 35°36' E 140°06'0 0.0
2016-Apr-25 04:33N 35°36' E 140°06'3 3.0
2016-Apr-25 03:33N 35°34' E 140°03'2 2.3
2016-Apr-25 02:33N 35°36' E 140°05'0 0.0
2016-Apr-25 01:33N 35°36' E 140°05'0 0.0
2016-Apr-25 00:33N 35°36' E 140°05'2 2.4
2016-Apr-24 23:33N 35°34' E 140°03'5 4.7
2016-Apr-24 22:28N 35°30' E 140°00'0 0.0
2016-Apr-24 21:28N 35°30' E 140°00'0 0.0
2016-Apr-24 20:28N 35°30' E 140°00'0 0.0
2016-Apr-24 19:28N 35°30' E 140°00'0 0.0
2016-Apr-24 18:28N 35°30' E 140°00'0 0.0
2016-Apr-24 17:28N 35°30' E 140°00'0 0.0
2016-Apr-24 16:28N 35°30' E 140°00'0 0.0
2016-Apr-24 15:28N 35°30' E 140°00'0 0.0
2016-Apr-24 14:28N 35°30' E 140°00'0 0.0
2016-Apr-24 13:28N 35°30' E 140°00'0 0.0
2016-Apr-24 12:28N 35°30' E 140°00'0 0.0
2016-Apr-24 11:16N 35°30' E 140°00'0 0.0
2016-Apr-24 10:22N 35°30' E 140°00'2 1.9
2016-Apr-24 09:33N 35°30' E 140°02'0 0.2
2016-Apr-24 08:33N 35°30' E 140°02'0 0.0
2016-Apr-24 07:33N 35°30' E 140°02'0 0.0
2016-Apr-24 06:33N 35°30' E 140°02'0 0.0
2016-Apr-24 05:33N 35°30' E 140°02'1 1.0
2016-Apr-24 04:33N 35°30' E 140°01'5 4.5
2016-Apr-24 03:33N 35°34' E 140°03'2 2.2
2016-Apr-24 02:33N 35°36' E 140°05'0 0.0
2016-Apr-24 01:33N 35°36' E 140°05'0 0.0
2016-Apr-24 00:33N 35°36' E 140°05'1 0.6
2016-Apr-23 23:33N 35°36' E 140°05'7 6.9
2016-Apr-23 22:33N 35°30' E 140°00'0 0.0
2016-Apr-23 21:33N 35°30' E 140°00'0 0.1
2016-Apr-23 20:33N 35°30' E 140°00'0 0.0
2016-Apr-23 19:33N 35°30' E 140°00'0 0.0
2016-Apr-23 18:33N 35°30' E 140°00'0 0.0
2016-Apr-23 17:33N 35°30' E 140°00'0 0.0
2016-Apr-23 16:33N 35°30' E 140°00'0 0.0
2016-Apr-23 15:33N 35°30' E 140°00'0 0.0
2016-Apr-23 14:33N 35°30' E 140°00'0 0.1
2016-Apr-23 13:33N 35°30' E 140°00'0 0.0
2016-Apr-23 12:33N 35°30' E 140°00'0 0.0
2016-Apr-23 11:33N 35°30' E 140°00'0 0.0
2016-Apr-23 10:33N 35°30' E 140°00'0 0.0
2016-Apr-23 09:27N 35°30' E 140°00'0 0.0
2016-Apr-23 08:27N 35°30' E 140°00'0 0.0
2016-Apr-23 07:15N 35°30' E 140°00'0 0.1
2016-Apr-23 06:33N 35°30' E 140°00'0 0.0
2016-Apr-23 05:33N 35°30' E 140°00'0 0.0
2016-Apr-23 04:33N 35°30' E 140°00'1 1.5
2016-Apr-23 03:34N 35°30' E 140°02'0 0.0
2016-Apr-23 02:33N 35°30' E 140°02'0 0.0
2016-Apr-23 01:33N 35°30' E 140°02'0 0.0
2016-Apr-23 00:33N 35°30' E 140°02'0 0.0
2016-Apr-22 23:33N 35°30' E 140°02'2 2.3
2016-Apr-22 22:32N 35°31' E 139°59'0 0.0
2016-Apr-22 21:33N 35°31' E 139°59'0 0.0
2016-Apr-22 20:33N 35°31' E 139°59'0 0.0
2016-Apr-22 19:33N 35°31' E 139°59'0 0.0
2016-Apr-22 18:33N 35°31' E 139°60'0 0.0
2016-Apr-22 17:33N 35°31' E 139°60'0 0.0
2016-Apr-22 16:33N 35°31' E 139°59'0 0.0
2016-Apr-22 15:33N 35°31' E 139°59'0 0.0
2016-Apr-22 14:33N 35°31' E 139°59'0 0.0
2016-Apr-22 13:32N 35°31' E 139°59'0 0.0
2016-Apr-22 12:33N 35°31' E 139°59'0 0.0
2016-Apr-22 11:33N 35°31' E 139°59'0 0.0
2016-Apr-22 10:33N 35°31' E 139°59'0 0.0
2016-Apr-22 09:33N 35°31' E 139°59'0 0.0
2016-Apr-22 08:33N 35°31' E 139°59'0 0.0
2016-Apr-22 07:33N 35°31' E 139°59'0 0.0
2016-Apr-22 06:34N 35°31' E 139°59'0 0.0
2016-Apr-22 05:33N 35°31' E 139°59'0 0.0
2016-Apr-22 04:33N 35°31' E 139°59'0 0.2
2016-Apr-22 03:33N 35°31' E 139°60'7 6.7
2016-Apr-22 02:33N 35°36' E 140°05'0 0.0
2016-Apr-22 01:33N 35°36' E 140°05'0 0.0
2016-Apr-22 00:33N 35°36' E 140°05'0 0.4
2016-Apr-21 23:33N 35°36' E 140°05'7 7.0
2016-Apr-21 22:33N 35°30' E 140°00'0 0.0
2016-Apr-21 21:33N 35°30' E 140°00'0 0.1
2016-Apr-21 20:33N 35°30' E 140°00'0 0.0
2016-Apr-21 19:33N 35°30' E 140°00'0 0.0
2016-Apr-21 18:33N 35°30' E 140°00'0 0.0
2016-Apr-21 17:33N 35°30' E 140°00'0 0.0
2016-Apr-21 16:32N 35°30' E 140°00'0 0.0
2016-Apr-21 15:21N 35°30' E 140°00'0 0.0
2016-Apr-21 14:33N 35°30' E 140°00'0 0.1
2016-Apr-21 13:33N 35°30' E 140°00'0 0.1
2016-Apr-21 12:32N 35°30' E 140°00'0 0.0
2016-Apr-21 11:33N 35°30' E 140°00'0 0.0
2016-Apr-21 10:33N 35°30' E 140°00'0 0.0
2016-Apr-21 09:25N 35°30' E 140°00'0 0.0
2016-Apr-21 08:32N 35°30' E 140°00'1 1.5
2016-Apr-21 07:33N 35°30' E 140°02'0 0.0
2016-Apr-21 06:33N 35°30' E 140°02'  

Dump ship's entire track history